createdAt,value
2019-02-27T00:02:27.216Z,31.07
2019-02-27T00:04:59.107Z,28.73
2019-02-27T00:07:31.137Z,27.35
2019-02-27T00:10:05.924Z,26.65
2019-02-27T00:12:35.695Z,26.10
2019-02-27T00:15:07.426Z,30.25
2019-02-27T00:17:39.015Z,26.87
2019-02-27T00:20:10.439Z,29.07
2019-02-27T00:22:41.657Z,26.07
2019-02-27T00:25:13.629Z,31.48
2019-02-27T00:27:48.852Z,27.48
2019-02-27T00:30:18.945Z,34.03
2019-02-27T00:32:51.322Z,24.00
2019-02-27T00:35:23.445Z,45.43
2019-02-27T00:37:54.810Z,37.03
2019-02-27T00:40:26.720Z,31.95
2019-02-27T00:42:57.702Z,27.20
2019-02-27T00:45:29.351Z,28.12
2019-02-27T00:48:00.997Z,26.77
2019-02-27T00:50:32.584Z,23.73
2019-02-27T00:53:03.576Z,26.23
2019-02-27T00:55:38.631Z,25.32
2019-02-27T00:58:07.788Z,24.27
2019-02-27T01:00:40.009Z,21.73
2019-02-27T01:03:11.471Z,25.80
2019-02-27T01:05:42.750Z,27.37
2019-02-27T01:08:13.463Z,24.98
2019-02-27T01:10:45.320Z,25.48
2019-02-27T01:13:17.629Z,24.63
2019-02-27T01:15:49.195Z,23.98
2019-02-27T01:18:20.440Z,27.70
2019-02-27T01:20:51.732Z,22.90
2019-02-27T01:23:22.977Z,26.82
2019-02-27T01:25:56.294Z,26.02
2019-02-27T01:28:27.513Z,23.77
2019-02-27T01:30:58.570Z,29.63
2019-02-27T01:33:30.093Z,25.30
2019-02-27T01:36:00.825Z,23.35
2019-02-27T01:38:32.371Z,25.55
2019-02-27T01:41:03.732Z,35.48
2019-02-27T01:43:36.897Z,31.93
2019-02-27T01:46:08.637Z,21.77
2019-02-27T01:48:43.003Z,25.90
2019-02-27T01:51:13.488Z,23.62
2019-02-27T01:53:45.156Z,33.88
2019-02-27T01:56:16.747Z,27.75
2019-02-27T01:58:48.072Z,26.00
2019-02-27T02:01:19.077Z,27.32
2019-02-27T02:03:50.311Z,22.17
2019-02-27T02:06:21.866Z,34.75
2019-02-27T02:09:41.416Z,22.37
2019-02-27T02:12:23.771Z,22.93
2019-02-27T02:15:52.099Z,22.55
2019-02-27T02:19:21.443Z,27.45
2019-02-27T02:22:53.853Z,26.55
2019-02-27T02:26:17.662Z,26.30
2019-02-27T02:30:03.962Z,24.25
2019-02-27T02:33:29.163Z,26.45
2019-02-27T02:36:52.626Z,25.50
2019-02-27T02:40:02.885Z,27.73
2019-02-27T02:43:25.747Z,25.50
2019-02-27T02:46:49.324Z,25.68
2019-02-27T02:50:17.667Z,36.40
2019-02-27T02:54:02.893Z,26.82
2019-02-27T02:57:10.607Z,23.32
2019-02-27T03:00:14.515Z,25.57
2019-02-27T03:03:20.784Z,28.62
2019-02-27T03:06:41.787Z,24.77
2019-02-27T03:10:07.565Z,30.08
2019-02-27T03:13:41.877Z,25.08
2019-02-27T03:16:48.182Z,25.72
2019-02-27T03:20:17.961Z,27.35
2019-02-27T03:23:24.479Z,31.62
2019-02-27T03:26:23.516Z,28.95
2019-02-27T03:29:37.047Z,28.83
2019-02-27T03:32:19.102Z,30.95
2019-02-27T03:35:33.681Z,28.50
2019-02-27T03:38:26.561Z,26.80
2019-02-27T03:41:37.355Z,34.23
2019-02-27T03:44:44.809Z,25.40
2019-02-27T03:48:13.641Z,23.57
2019-02-27T03:51:24.639Z,26.20
2019-02-27T03:54:58.435Z,29.72
2019-02-27T03:58:32.650Z,27.00
2019-02-27T04:02:07.739Z,27.07
2019-02-27T04:05:13.514Z,30.00
2019-02-27T04:08:43.501Z,26.85
2019-02-27T04:11:11.744Z,23.90
2019-02-27T04:13:43.322Z,24.07
2019-02-27T04:16:14.513Z,25.10
2019-02-27T04:18:46.091Z,25.35
2019-02-27T04:21:17.801Z,23.18
2019-02-27T04:23:49.897Z,27.05
2019-02-27T04:26:21.831Z,25.72
2019-02-27T04:28:53.399Z,28.30
2019-02-27T04:31:29.594Z,29.52
2019-02-27T04:34:00.355Z,24.05
2019-02-27T04:36:31.683Z,27.40
2019-02-27T04:39:03.515Z,26.00
2019-02-27T04:41:34.600Z,23.12
2019-02-27T04:44:06.224Z,26.85
2019-02-27T04:46:38.185Z,27.02
2019-02-27T04:49:09.430Z,30.55
2019-02-27T04:51:40.720Z,32.03
2019-02-27T04:54:12.592Z,27.17
2019-02-27T04:56:43.996Z,23.55
2019-02-27T04:59:18.569Z,31.33
2019-02-27T05:01:48.446Z,21.68
2019-02-27T05:04:19.776Z,24.00
2019-02-27T05:06:51.964Z,25.75
2019-02-27T05:09:23.968Z,31.97
2019-02-27T05:11:55.760Z,24.90
2019-02-27T05:14:28.052Z,22.98
2019-02-27T05:16:59.929Z,20.23
2019-02-27T05:19:31.798Z,21.62
2019-02-27T05:22:03.203Z,22.60
2019-02-27T05:24:34.837Z,22.67
2019-02-27T05:27:06.016Z,23.85
2019-02-27T05:29:37.546Z,21.93
2019-02-27T05:32:10.123Z,29.82
2019-02-27T05:34:41.773Z,26.17
2019-02-27T05:37:13.326Z,26.73
2019-02-27T05:39:45.182Z,26.57
2019-02-27T05:42:16.430Z,26.37
2019-02-27T05:44:47.337Z,23.70
2019-02-27T05:47:18.339Z,27.67
2019-02-27T05:49:49.645Z,28.35
2019-02-27T05:52:21.648Z,28.65
2019-02-27T05:54:52.892Z,26.35
2019-02-27T05:57:24.647Z,29.20
2019-02-27T05:59:55.876Z,20.70
2019-02-27T06:02:26.537Z,26.35
2019-02-27T06:04:59.200Z,36.53
2019-02-27T06:07:31.071Z,54.58
2019-02-27T06:10:01.856Z,46.33
2019-02-27T06:12:33.458Z,32.80
2019-02-27T06:15:05.294Z,30.48
2019-02-27T06:17:43.279Z,28.67
2019-02-27T06:20:11.166Z,26.52
2019-02-27T06:22:43.032Z,24.50
2019-02-27T06:25:21.676Z,22.82
2019-02-27T06:27:50.881Z,28.52
2019-02-27T06:30:22.436Z,37.15
2019-02-27T06:32:53.727Z,32.58
2019-02-27T06:35:24.986Z,51.70
2019-02-27T06:37:56.550Z,50.55
2019-02-27T06:40:28.095Z,39.65
2019-02-27T06:42:59.788Z,33.88
2019-02-27T06:45:30.927Z,32.58
2019-02-27T06:48:02.509Z,33.02
2019-02-27T06:50:34.053Z,30.17
2019-02-27T06:53:05.341Z,26.48
2019-02-27T06:55:37.665Z,26.52
2019-02-27T06:58:09.093Z,25.08
2019-02-27T07:00:40.655Z,23.95
2019-02-27T07:03:12.203Z,21.75
2019-02-27T07:05:45.560Z,24.90
2019-02-27T07:08:16.645Z,23.85
2019-02-27T07:10:48.050Z,29.35
2019-02-27T07:13:21.569Z,25.37
2019-02-27T07:15:55.549Z,27.93
2019-02-27T07:18:26.713Z,26.00
2019-02-27T07:20:59.210Z,29.00
2019-02-27T07:23:31.691Z,26.45
2019-02-27T07:26:02.856Z,28.95
2019-02-27T07:28:34.379Z,23.90
2019-02-27T07:31:06.022Z,28.07
2019-02-27T07:33:37.998Z,27.90
2019-02-27T07:36:10.769Z,29.90
2019-02-27T07:38:42.629Z,26.27
2019-02-27T07:41:17.556Z,30.97
2019-02-27T07:43:47.942Z,29.82
2019-02-27T07:46:22.241Z,29.57
2019-02-27T07:48:56.283Z,26.02
2019-02-27T07:51:25.580Z,27.22
2019-02-27T07:53:57.106Z,28.85
2019-02-27T07:56:28.393Z,31.50
2019-02-27T07:58:59.519Z,29.25
2019-02-27T08:01:30.501Z,31.52
2019-02-27T08:04:01.779Z,36.48
2019-02-27T08:06:35.089Z,30.68
2019-02-27T08:09:08.296Z,27.87
2019-02-27T08:11:39.863Z,27.30
2019-02-27T08:14:12.975Z,29.55
2019-02-27T08:16:44.165Z,33.28
2019-02-27T08:19:14.865Z,25.40
2019-02-27T08:21:46.021Z,35.50
2019-02-27T08:24:17.943Z,24.75
2019-02-27T08:26:49.741Z,29.65
2019-02-27T08:29:21.658Z,27.00
2019-02-27T08:31:53.165Z,26.85
2019-02-27T08:34:24.736Z,27.30
2019-02-27T08:36:56.941Z,27.07
2019-02-27T08:39:28.297Z,27.35
2019-02-27T08:42:03.232Z,23.75
2019-02-27T08:44:33.016Z,26.62
2019-02-27T08:47:04.456Z,30.05
2019-02-27T08:49:35.582Z,24.45
2019-02-27T08:52:08.522Z,25.20
2019-02-27T08:54:40.103Z,22.02
2019-02-27T08:57:11.262Z,25.62
2019-02-27T08:59:43.374Z,23.75
2019-02-27T09:02:15.523Z,21.82
2019-02-27T09:04:47.314Z,24.32
2019-02-27T09:07:19.032Z,19.70
2019-02-27T09:09:51.745Z,21.02
2019-02-27T09:12:24.054Z,22.73
2019-02-27T09:14:55.997Z,24.00
2019-02-27T09:17:27.912Z,20.37
2019-02-27T09:20:00.184Z,18.80
2019-02-27T09:22:33.802Z,19.80
2019-02-27T09:25:05.702Z,25.45
2019-02-27T09:27:37.199Z,36.98
2019-02-27T09:30:10.425Z,19.37
2019-02-27T09:32:43.257Z,21.20
2019-02-27T09:35:15.375Z,21.55
2019-02-27T09:37:48.399Z,17.48
2019-02-27T09:40:20.990Z,18.90
2019-02-27T09:42:53.752Z,16.93
2019-02-27T09:45:30.626Z,24.00
2019-02-27T09:48:02.465Z,21.37
2019-02-27T09:50:48.147Z,19.05
2019-02-27T09:53:17.922Z,20.57
2019-02-27T09:55:53.509Z,19.87
2019-02-27T09:58:22.931Z,21.85
2019-02-27T10:01:00.275Z,20.70
2019-02-27T10:03:32.862Z,23.20
2019-02-27T10:06:04.450Z,19.17
2019-02-27T10:08:36.299Z,23.23
2019-02-27T10:11:08.076Z,24.23
2019-02-27T10:13:39.892Z,25.43
2019-02-27T10:16:11.656Z,27.55
2019-02-27T10:18:42.672Z,19.77
2019-02-27T10:21:13.696Z,25.88
2019-02-27T10:23:45.106Z,24.03
2019-02-27T10:26:16.584Z,22.50
2019-02-27T10:28:49.108Z,20.97
2019-02-27T10:31:20.546Z,22.60
2019-02-27T10:33:52.612Z,27.10
2019-02-27T10:36:24.277Z,20.50
2019-02-27T10:38:55.544Z,27.13
2019-02-27T10:41:27.022Z,23.77
2019-02-27T10:43:58.035Z,20.10
2019-02-27T10:46:29.337Z,25.57
2019-02-27T10:49:00.563Z,22.80
2019-02-27T10:51:31.829Z,22.17
2019-02-27T10:54:05.330Z,23.87
2019-02-27T10:56:35.842Z,21.40
2019-02-27T10:59:07.080Z,21.60
2019-02-27T11:01:38.717Z,24.00
2019-02-27T11:04:10.259Z,19.60
2019-02-27T11:06:41.905Z,16.37
2019-02-27T11:09:28.053Z,21.63
2019-02-27T11:12:00.040Z,21.13
2019-02-27T11:14:32.737Z,20.90
2019-02-27T11:17:04.770Z,20.07
2019-02-27T11:19:36.146Z,25.73
2019-02-27T11:22:07.576Z,21.80
2019-02-27T11:24:38.763Z,21.07
2019-02-27T11:27:10.722Z,22.27
2019-02-27T11:29:42.569Z,22.10
2019-02-27T11:32:14.214Z,17.27
2019-02-27T11:34:45.546Z,26.00
2019-02-27T11:37:18.863Z,24.47
2019-02-27T11:39:50.617Z,17.97
2019-02-27T11:42:22.323Z,17.27
2019-02-27T11:44:53.774Z,21.50
2019-02-27T11:47:25.325Z,22.17
2019-02-27T11:49:57.158Z,20.90
2019-02-27T11:52:28.924Z,19.07
2019-02-27T11:54:59.715Z,20.53
2019-02-27T11:57:31.302Z,18.63
2019-02-27T12:00:02.331Z,17.63
2019-02-27T12:02:37.797Z,17.67
2019-02-27T12:05:07.886Z,18.40
2019-02-27T12:07:39.204Z,23.43
2019-02-27T12:10:14.012Z,16.30
2019-02-27T12:12:45.338Z,22.13
2019-02-27T12:15:18.779Z,19.83
2019-02-27T12:17:50.343Z,23.10
2019-02-27T12:20:22.291Z,19.40
2019-02-27T12:22:54.050Z,18.93
2019-02-27T12:25:29.007Z,19.93
2019-02-27T12:27:59.101Z,19.37
2019-02-27T12:30:31.204Z,17.80
2019-02-27T12:33:02.217Z,18.63
2019-02-27T12:35:33.930Z,24.83
2019-02-27T12:38:08.063Z,18.17
2019-02-27T12:40:38.978Z,21.97
2019-02-27T12:43:10.538Z,19.67
2019-02-27T12:45:41.657Z,19.03
2019-02-27T12:48:13.344Z,17.33
2019-02-27T12:50:44.768Z,26.97
2019-02-27T12:53:20.726Z,20.10
2019-02-27T12:55:49.108Z,19.33
2019-02-27T12:58:20.485Z,16.80
2019-02-27T13:00:51.265Z,18.60
2019-02-27T13:03:22.706Z,16.27
2019-02-27T13:05:54.598Z,18.73
2019-02-27T13:08:25.604Z,18.43
2019-02-27T13:10:56.848Z,16.47
2019-02-27T13:13:27.980Z,16.03
2019-02-27T13:15:59.528Z,17.90
2019-02-27T13:18:31.982Z,17.07
2019-02-27T13:21:03.968Z,15.57
2019-02-27T13:23:36.363Z,13.70
2019-02-27T13:26:08.630Z,15.50
2019-02-27T13:28:40.507Z,16.00
2019-02-27T13:31:13.673Z,15.00
2019-02-27T13:33:45.551Z,19.07
2019-02-27T13:36:16.559Z,16.40
2019-02-27T13:38:49.619Z,11.50
2019-02-27T13:41:23.717Z,14.67
2019-02-27T13:43:55.367Z,14.50
2019-02-27T13:46:26.649Z,13.73
2019-02-27T13:48:58.021Z,11.40
2019-02-27T13:51:28.994Z,12.90
2019-02-27T13:54:01.285Z,11.50
2019-02-27T13:56:32.567Z,13.30
2019-02-27T13:59:04.431Z,12.77
2019-02-27T14:01:36.491Z,11.83
2019-02-27T14:04:08.374Z,12.27
2019-02-27T14:06:42.832Z,12.57
2019-02-27T14:09:13.073Z,22.27
2019-02-27T14:11:44.739Z,14.43
2019-02-27T14:14:17.638Z,12.80
2019-02-27T14:16:49.396Z,10.30
2019-02-27T14:19:21.320Z,12.97
2019-02-27T14:23:08.020Z,12.60
2019-02-27T14:25:39.313Z,11.70
2019-02-27T14:28:10.967Z,11.50
2019-02-27T14:30:46.153Z,13.00
2019-02-27T14:33:19.339Z,12.10
2019-02-27T14:35:51.482Z,9.57
2019-02-27T14:38:22.952Z,11.07
2019-02-27T14:40:55.068Z,9.47
2019-02-27T14:43:27.962Z,10.17
2019-02-27T14:45:59.229Z,14.03
2019-02-27T14:48:30.558Z,12.33
2019-02-27T14:51:07.300Z,8.93
2019-02-27T14:53:37.040Z,10.40
2019-02-27T14:56:10.046Z,10.40
2019-02-27T14:58:42.184Z,8.93
2019-02-27T15:01:14.462Z,10.57
2019-02-27T15:03:46.522Z,8.90
2019-02-27T15:06:19.435Z,10.17
2019-02-27T15:08:58.082Z,9.40
2019-02-27T15:11:25.035Z,10.20
2019-02-27T15:13:59.663Z,9.57
2019-02-27T15:16:30.614Z,9.63
2019-02-27T15:19:02.533Z,10.00
2019-02-27T15:21:33.859Z,10.27
2019-02-27T15:24:04.816Z,11.07
2019-02-27T15:26:44.848Z,9.73
2019-02-27T15:29:08.270Z,8.50
2019-02-27T15:31:40.034Z,8.67
2019-02-27T15:34:12.229Z,9.10
2019-02-27T15:36:43.818Z,10.30
2019-02-27T15:39:20.275Z,9.80
2019-02-27T15:41:48.450Z,8.80
2019-02-27T15:44:20.315Z,9.27
2019-02-27T15:46:53.457Z,8.97
2019-02-27T15:49:24.968Z,7.10
2019-02-27T15:51:56.583Z,5.90
2019-02-27T15:54:28.589Z,5.13
2019-02-27T15:56:59.876Z,5.43
2019-02-27T15:59:31.477Z,6.73
2019-02-27T16:02:03.663Z,5.53
2019-02-27T16:04:35.651Z,8.23
2019-02-27T16:07:07.324Z,9.07
2019-02-27T16:09:38.615Z,9.80
2019-02-27T16:12:09.860Z,9.07
2019-02-27T16:14:42.843Z,7.97
2019-02-27T16:17:14.258Z,17.57
2019-02-27T16:19:45.588Z,9.03
2019-02-27T16:22:16.867Z,9.87
2019-02-27T16:24:48.477Z,11.33
2019-02-27T16:27:20.083Z,8.47
2019-02-27T16:29:51.048Z,10.13
2019-02-27T16:32:22.579Z,9.00
2019-02-27T16:34:54.153Z,8.57
2019-02-27T16:37:25.911Z,8.63
2019-02-27T16:39:57.475Z,8.60
2019-02-27T16:42:28.901Z,8.97
2019-02-27T16:45:00.782Z,7.90
2019-02-27T16:47:32.824Z,8.40
2019-02-27T16:50:04.695Z,6.97
2019-02-27T16:52:36.235Z,10.50
2019-02-27T16:55:09.630Z,12.17
2019-02-27T16:57:40.892Z,10.97
2019-02-27T17:00:17.795Z,7.50
2019-02-27T17:02:47.815Z,9.07
2019-02-27T17:05:19.195Z,7.40
2019-02-27T17:07:50.346Z,8.30
2019-02-27T17:10:29.362Z,6.73
2019-02-27T17:13:00.622Z,8.57
2019-02-27T17:15:35.872Z,7.30
2019-02-27T17:18:05.612Z,11.40
2019-02-27T17:20:36.947Z,8.50
2019-02-27T17:23:10.815Z,9.23
2019-02-27T17:25:42.019Z,8.43
2019-02-27T17:28:13.895Z,10.60
2019-02-27T17:30:45.937Z,9.10
2019-02-27T17:33:17.570Z,8.73
2019-02-27T17:35:48.595Z,16.20
2019-02-27T17:38:20.180Z,9.70
2019-02-27T17:40:52.522Z,14.60
2019-02-27T17:43:28.513Z,10.20
2019-02-27T17:45:56.903Z,11.43
2019-02-27T17:48:28.165Z,11.00
2019-02-27T17:50:58.865Z,12.33
2019-02-27T17:53:30.504Z,10.20
2019-02-27T17:56:02.429Z,13.43
2019-02-27T17:58:35.005Z,13.40
2019-02-27T18:01:07.645Z,7.83
2019-02-27T18:03:41.616Z,10.10
2019-02-27T18:06:12.031Z,8.70
2019-02-27T18:08:43.412Z,12.53
2019-02-27T18:11:15.580Z,8.33
2019-02-27T18:13:48.204Z,11.20
2019-02-27T18:16:19.915Z,10.33
2019-02-27T18:18:51.362Z,10.43
2019-02-27T18:21:23.501Z,10.27
2019-02-27T18:23:55.299Z,11.27
2019-02-27T18:26:28.422Z,13.53
2019-02-27T18:29:00.108Z,12.60
2019-02-27T18:31:31.720Z,11.90
2019-02-27T18:34:03.036Z,10.77
2019-02-27T18:36:42.637Z,11.70
2019-02-27T18:39:09.916Z,10.70
2019-02-27T18:41:41.707Z,12.63
2019-02-27T18:44:13.129Z,11.43
2019-02-27T18:46:44.820Z,13.60
2019-02-27T18:49:18.640Z,16.00
2019-02-27T18:51:50.229Z,17.83
2019-02-27T18:54:22.848Z,12.93
2019-02-27T18:56:54.806Z,14.00
2019-02-27T18:59:29.521Z,18.23
2019-02-27T19:02:00.800Z,16.40
2019-02-27T19:04:35.216Z,14.50
2019-02-27T19:07:08.568Z,18.53
2019-02-27T19:09:40.672Z,21.20
2019-02-27T19:12:12.662Z,22.40
2019-02-27T19:14:44.912Z,20.90
2019-02-27T19:17:17.200Z,22.40
2019-02-27T19:19:49.086Z,16.63
2019-02-27T19:22:21.412Z,17.20
2019-02-27T19:24:52.923Z,18.80
2019-02-27T19:27:25.068Z,17.20
2019-02-27T19:29:56.564Z,18.73
2019-02-27T19:32:28.505Z,17.40
2019-02-27T19:35:01.194Z,23.43
2019-02-27T19:37:32.840Z,18.03
2019-02-27T19:40:04.750Z,17.53
2019-02-27T19:42:36.063Z,19.30
2019-02-27T19:45:08.379Z,17.43
2019-02-27T19:47:40.507Z,21.60
2019-02-27T19:50:12.356Z,15.37
2019-02-27T19:52:43.966Z,15.00
2019-02-27T19:55:16.004Z,18.17
2019-02-27T19:57:47.755Z,15.63
2019-02-27T20:00:21.581Z,16.33
2019-02-27T20:02:57.478Z,17.30
2019-02-27T20:05:27.712Z,13.30
2019-02-27T20:08:02.239Z,15.70
2019-02-27T20:10:33.428Z,19.77
2019-02-27T20:13:06.957Z,17.57
2019-02-27T20:15:38.034Z,12.33
2019-02-27T20:18:09.757Z,13.85
2019-02-27T20:20:42.216Z,15.37
2019-02-27T20:23:14.289Z,14.13
2019-02-27T20:25:46.362Z,14.93
2019-02-27T20:28:18.358Z,13.83
2019-02-27T20:30:50.243Z,12.03
2019-02-27T20:33:22.579Z,11.87
2019-02-27T20:35:55.807Z,16.37
2019-02-27T20:38:28.353Z,24.17
2019-02-27T20:41:00.846Z,21.13
2019-02-27T20:43:33.357Z,16.50
2019-02-27T20:46:05.141Z,15.58
2019-02-27T20:48:39.492Z,17.43
2019-02-27T20:51:11.069Z,14.30
2019-02-27T20:53:43.409Z,20.27
2019-02-27T20:56:15.081Z,16.53
2019-02-27T20:58:51.080Z,17.07
2019-02-27T21:01:20.533Z,16.70
2019-02-27T21:03:52.248Z,13.57
2019-02-27T21:06:24.119Z,18.00
2019-02-27T21:08:57.145Z,17.37
2019-02-27T21:11:29.903Z,14.45
2019-02-27T21:14:02.625Z,14.43
2019-02-27T21:16:34.298Z,19.00
2019-02-27T21:19:05.876Z,21.00
2019-02-27T21:21:37.662Z,19.77
2019-02-27T21:24:08.367Z,17.35
2019-02-27T21:26:40.638Z,15.53
2019-02-27T21:29:12.565Z,22.60
2019-02-27T21:31:45.050Z,15.78
2019-02-27T21:34:20.100Z,17.05
2019-02-27T21:36:51.721Z,16.73
2019-02-27T21:39:25.201Z,27.07
2019-02-27T21:41:56.531Z,19.75
2019-02-27T21:44:29.208Z,17.82
2019-02-27T21:47:01.393Z,18.23
2019-02-27T21:49:32.836Z,16.20
2019-02-27T21:52:04.153Z,14.68
2019-02-27T21:54:38.671Z,18.00
2019-02-27T21:57:09.075Z,21.20
2019-02-27T21:59:41.764Z,22.32
2019-02-27T22:02:13.329Z,15.68
2019-02-27T22:04:44.748Z,17.90
2019-02-27T22:07:16.227Z,16.23
2019-02-27T22:09:47.216Z,17.98
2019-02-27T22:12:17.988Z,16.95
2019-02-27T22:14:50.083Z,14.55
2019-02-27T22:17:21.993Z,17.23
2019-02-27T22:19:54.750Z,19.40
2019-02-27T22:22:26.072Z,15.35
2019-02-27T22:24:57.511Z,19.77
2019-02-27T22:27:28.808Z,19.40
2019-02-27T22:29:59.895Z,15.25
2019-02-27T22:32:32.047Z,19.17
2019-02-27T22:35:04.126Z,16.27
2019-02-27T22:37:35.979Z,17.17
2019-02-27T22:40:09.559Z,21.27
2019-02-27T22:42:41.588Z,15.98
2019-02-27T22:45:14.534Z,18.85
2019-02-27T22:47:46.161Z,17.75
2019-02-27T22:50:17.983Z,15.15
2019-02-27T22:52:54.125Z,16.65
2019-02-27T22:55:23.001Z,16.45
2019-02-27T22:57:54.980Z,17.15
2019-02-27T23:01:15.829Z,14.65
2019-02-27T23:03:57.811Z,15.60
2019-02-27T23:06:30.590Z,16.00
2019-02-27T23:09:02.006Z,18.30
2019-02-27T23:11:34.156Z,21.75
2019-02-27T23:14:06.501Z,21.87
2019-02-27T23:16:37.752Z,22.42
2019-02-27T23:19:12.003Z,16.12
2019-02-27T23:21:42.576Z,16.45
2019-02-27T23:24:14.339Z,15.95
2019-02-27T23:26:45.959Z,16.00
2019-02-27T23:29:18.010Z,19.07
2019-02-27T23:31:50.152Z,19.00
2019-02-27T23:34:21.640Z,17.20
2019-02-27T23:36:55.839Z,16.45
2019-02-27T23:39:26.597Z,16.87
2019-02-27T23:41:58.314Z,18.48
2019-02-27T23:44:29.632Z,16.65
2019-02-27T23:47:00.874Z,17.32
2019-02-27T23:49:32.127Z,24.75
2019-02-27T23:52:03.927Z,20.43
2019-02-27T23:54:36.567Z,20.25
2019-02-27T23:57:08.556Z,17.57
2019-02-27T23:59:40.164Z,24.63
